createdAt,value
2018-09-27T00:00:45.474Z,928.83
2018-09-27T00:01:45.477Z,928.82
2018-09-27T00:02:45.501Z,928.84
2018-09-27T00:03:45.501Z,928.83
2018-09-27T00:04:45.686Z,928.84
2018-09-27T00:05:45.558Z,928.87
2018-09-27T00:06:45.610Z,928.87
2018-09-27T00:07:45.701Z,928.92
2018-09-27T00:08:45.715Z,928.91
2018-09-27T00:09:45.771Z,928.90
2018-09-27T00:10:45.669Z,928.89
2018-09-27T00:11:45.756Z,928.91
2018-09-27T00:12:45.777Z,928.91
2018-09-27T00:13:45.792Z,928.89
2018-09-27T00:14:45.824Z,928.91
2018-09-27T00:15:45.689Z,928.92
2018-09-27T00:16:45.724Z,928.96
2018-09-27T00:17:45.849Z,928.97
2018-09-27T00:18:45.745Z,928.92
2018-09-27T00:19:45.907Z,928.97
2018-09-27T00:20:45.901Z,928.97
2018-09-27T00:21:45.910Z,928.98
2018-09-27T00:22:45.817Z,928.94
2018-09-27T00:23:45.822Z,928.95
2018-09-27T00:24:45.889Z,928.93
2018-09-27T00:25:45.855Z,928.95
2018-09-27T00:26:45.860Z,928.94
2018-09-27T00:27:45.912Z,928.97
2018-09-27T00:28:45.899Z,928.96
2018-09-27T00:29:45.910Z,928.90
2018-09-27T00:30:46.078Z,928.93
2018-09-27T00:31:45.957Z,928.91
2018-09-27T00:32:45.973Z,928.94
2018-09-27T00:33:46.104Z,928.96
2018-09-27T00:34:45.984Z,929.01
2018-09-27T00:35:45.998Z,929.00
2018-09-27T00:36:46.142Z,929.05
2018-09-27T00:37:46.044Z,929.04
2018-09-27T00:38:46.219Z,929.03
2018-09-27T00:39:46.058Z,929.03
2018-09-27T00:40:46.097Z,929.02
2018-09-27T00:41:46.096Z,929.00
2018-09-27T00:42:46.237Z,929.01
2018-09-27T00:43:46.402Z,929.02
2018-09-27T00:44:46.267Z,929.01
2018-09-27T00:45:46.157Z,929.06
2018-09-27T00:46:46.182Z,929.06
2018-09-27T00:47:46.199Z,929.07
2018-09-27T00:48:46.393Z,929.09
2018-09-27T00:49:46.216Z,929.06
2018-09-27T00:50:46.239Z,929.03
2018-09-27T00:51:46.371Z,929.01
2018-09-27T00:52:46.308Z,929.00
2018-09-27T00:53:46.334Z,928.97
2018-09-27T00:54:46.413Z,928.93
2018-09-27T00:55:46.302Z,928.88
2018-09-27T00:56:46.325Z,928.89
2018-09-27T00:57:46.344Z,928.89
2018-09-27T00:58:46.626Z,928.88
2018-09-27T00:59:46.489Z,928.88
2018-09-27T01:00:46.384Z,928.91
2018-09-27T01:01:46.523Z,928.88
2018-09-27T01:02:46.539Z,928.89
2018-09-27T01:03:46.702Z,928.92
2018-09-27T01:04:46.456Z,928.90
2018-09-27T01:05:46.458Z,928.91
2018-09-27T01:06:46.481Z,928.92
2018-09-27T01:07:46.618Z,928.91
2018-09-27T01:08:46.780Z,928.92
2018-09-27T01:09:46.514Z,928.91
2018-09-27T01:10:46.538Z,928.89
2018-09-27T01:11:46.550Z,928.89
2018-09-27T01:12:46.577Z,928.85
2018-09-27T01:13:46.732Z,928.82
2018-09-27T01:14:46.592Z,928.84
2018-09-27T01:15:46.638Z,928.84
2018-09-27T01:16:46.750Z,928.86
2018-09-27T01:17:46.641Z,928.89
2018-09-27T01:18:46.770Z,928.90
2018-09-27T01:19:46.689Z,928.91
2018-09-27T01:20:46.690Z,928.86
2018-09-27T01:21:46.720Z,928.93
2018-09-27T01:22:46.847Z,928.93
2018-09-27T01:23:46.896Z,928.94
2018-09-27T01:24:46.875Z,928.91
2018-09-27T01:25:46.888Z,928.94
2018-09-27T01:26:46.786Z,928.94
2018-09-27T01:27:46.795Z,928.94
2018-09-27T01:28:47.012Z,928.96
2018-09-27T01:29:46.840Z,928.93
2018-09-27T01:30:46.853Z,928.95
2018-09-27T01:31:46.858Z,928.95
2018-09-27T01:32:46.881Z,928.92
2018-09-27T01:33:47.080Z,928.90
2018-09-27T01:34:46.906Z,928.90
2018-09-27T01:35:46.935Z,928.89
2018-09-27T01:36:47.059Z,928.90
2018-09-27T01:37:46.952Z,928.91
2018-09-27T01:38:47.167Z,928.90
2018-09-27T01:39:47.109Z,928.92
2018-09-27T01:40:46.995Z,928.95
2018-09-27T01:41:47.013Z,928.98
2018-09-27T01:42:47.070Z,929.00
2018-09-27T01:43:47.249Z,929.02
2018-09-27T01:44:47.073Z,929.01
2018-09-27T01:45:47.097Z,929.02
2018-09-27T01:46:47.094Z,929.06
2018-09-27T01:47:47.117Z,929.04
2018-09-27T01:48:47.357Z,929.08
2018-09-27T01:49:47.262Z,929.05
2018-09-27T01:50:47.139Z,929.01
2018-09-27T01:51:47.295Z,929.04
2018-09-27T01:52:47.192Z,929.01
2018-09-27T01:53:47.368Z,929.04
2018-09-27T01:54:47.205Z,929.01
2018-09-27T01:55:47.233Z,929.00
2018-09-27T01:56:47.238Z,929.00
2018-09-27T01:57:47.314Z,929.02
2018-09-27T01:58:47.478Z,929.01
2018-09-27T01:59:47.300Z,928.97
2018-09-27T02:00:47.311Z,928.96
2018-09-27T02:01:47.341Z,928.92
2018-09-27T02:02:47.331Z,928.93
2018-09-27T02:03:47.548Z,928.88
2018-09-27T02:04:47.490Z,928.86
2018-09-27T02:05:47.388Z,928.86
2018-09-27T02:06:47.523Z,928.89
2018-09-27T02:07:47.408Z,928.87
2018-09-27T02:08:47.599Z,928.88
2018-09-27T02:09:47.438Z,928.88
2018-09-27T02:10:47.453Z,928.90
2018-09-27T02:11:47.490Z,928.91
2018-09-27T02:12:47.614Z,928.90
2018-09-27T02:13:47.841Z,928.91
2018-09-27T02:14:47.520Z,928.91
2018-09-27T02:15:47.662Z,928.89
2018-09-27T02:16:47.556Z,928.90
2018-09-27T02:17:47.562Z,928.91
2018-09-27T02:18:47.781Z,928.88
2018-09-27T02:19:47.599Z,928.87
2018-09-27T02:20:47.735Z,928.89
2018-09-27T02:21:47.641Z,928.90
2018-09-27T02:22:47.772Z,928.85
2018-09-27T02:23:47.993Z,928.84
2018-09-27T02:24:47.705Z,928.84
2018-09-27T02:25:47.693Z,928.83
2018-09-27T02:26:47.711Z,928.83
2018-09-27T02:27:47.840Z,928.74
2018-09-27T02:28:47.937Z,928.76
2018-09-27T02:29:47.750Z,928.70
2018-09-27T02:30:47.893Z,928.71
2018-09-27T02:31:47.907Z,928.68
2018-09-27T02:33:48.140Z,928.71
2018-09-27T02:34:47.953Z,928.71
2018-09-27T02:35:47.845Z,928.74
2018-09-27T02:36:47.890Z,928.77
2018-09-27T02:37:48.000Z,928.74
2018-09-27T02:38:47.957Z,928.72
2018-09-27T02:39:47.896Z,928.74
2018-09-27T02:40:47.909Z,928.76
2018-09-27T02:41:47.975Z,928.75
2018-09-27T02:42:48.076Z,928.80
2018-09-27T02:43:48.016Z,928.86
2018-09-27T02:44:47.977Z,928.84
2018-09-27T02:45:48.128Z,928.86
2018-09-27T02:46:48.020Z,928.86
2018-09-27T02:47:48.061Z,928.82
2018-09-27T02:48:48.286Z,928.80
2018-09-27T02:49:48.105Z,928.76
2018-09-27T02:50:48.079Z,928.79
2018-09-27T02:51:48.107Z,928.73
2018-09-27T02:52:48.228Z,928.71
2018-09-27T02:53:48.249Z,928.67
2018-09-27T02:54:48.308Z,928.68
2018-09-27T02:55:48.272Z,928.70
2018-09-27T02:56:48.299Z,928.72
2018-09-27T02:57:48.308Z,928.71
2018-09-27T02:58:48.194Z,928.65
2018-09-27T02:59:48.390Z,928.64
2018-09-27T03:00:48.227Z,928.64
2018-09-27T03:01:48.232Z,928.62
2018-09-27T03:02:48.263Z,928.61
2018-09-27T03:03:48.329Z,928.62
2018-09-27T03:04:48.415Z,928.65
2018-09-27T03:05:48.354Z,928.68
2018-09-27T03:06:48.316Z,928.70
2018-09-27T03:07:48.334Z,928.73
2018-09-27T03:08:48.362Z,928.75
2018-09-27T03:09:48.354Z,928.71
2018-09-27T03:10:48.505Z,928.70
2018-09-27T03:11:48.613Z,928.68
2018-09-27T03:12:48.404Z,928.63
2018-09-27T03:13:48.464Z,928.62
2018-09-27T03:14:48.483Z,928.63
2018-09-27T03:15:48.443Z,928.64
2018-09-27T03:16:48.526Z,928.65
2018-09-27T03:17:48.541Z,928.58
2018-09-27T03:18:48.492Z,928.57
2018-09-27T03:19:48.514Z,928.58
2018-09-27T03:20:48.578Z,928.55
2018-09-27T03:21:48.541Z,928.55
2018-09-27T03:22:48.610Z,928.54
2018-09-27T03:23:48.697Z,928.51
2018-09-27T03:24:48.592Z,928.52
2018-09-27T03:25:48.645Z,928.49
2018-09-27T03:26:48.619Z,928.47
2018-09-27T03:27:48.683Z,928.46
2018-09-27T03:28:48.655Z,928.42
2018-09-27T03:29:48.678Z,928.39
2018-09-27T03:30:48.806Z,928.36
2018-09-27T03:31:48.826Z,928.35
2018-09-27T03:32:48.718Z,928.35
2018-09-27T03:33:48.725Z,928.33
2018-09-27T03:34:48.745Z,928.31
2018-09-27T03:35:48.880Z,928.30
2018-09-27T03:36:48.817Z,928.30
2018-09-27T03:37:48.785Z,928.26
2018-09-27T03:38:49.049Z,928.27
2018-09-27T03:39:48.848Z,928.26
2018-09-27T03:40:48.837Z,928.20
2018-09-27T03:41:48.972Z,928.23
2018-09-27T03:42:48.987Z,928.20
2018-09-27T03:43:49.046Z,928.23
2018-09-27T03:44:48.936Z,928.23
2018-09-27T03:45:48.904Z,928.25
2018-09-27T03:46:48.929Z,928.29
2018-09-27T03:47:48.928Z,928.32
2018-09-27T03:48:49.072Z,928.36
2018-09-27T03:49:49.030Z,928.40
2018-09-27T03:50:48.985Z,928.42
2018-09-27T03:51:49.166Z,928.43
2018-09-27T03:52:49.061Z,928.45
2018-09-27T03:53:49.149Z,928.40
2018-09-27T03:54:49.052Z,928.42
2018-09-27T03:55:49.072Z,928.43
2018-09-27T03:56:49.065Z,928.44
2018-09-27T03:57:49.185Z,928.41
2018-09-27T03:58:49.099Z,928.38
2018-09-27T03:59:49.241Z,928.37
2018-09-27T04:00:49.252Z,928.33
2018-09-27T04:01:49.269Z,928.35
2018-09-27T04:02:49.215Z,928.37
2018-09-27T04:03:49.173Z,928.36
2018-09-27T04:04:49.340Z,928.35
2018-09-27T04:05:49.327Z,928.40
2018-09-27T04:06:49.212Z,928.38
2018-09-27T04:07:49.456Z,928.33
2018-09-27T04:08:49.376Z,928.29
2018-09-27T04:09:49.253Z,928.21
2018-09-27T04:10:49.272Z,928.16
2018-09-27T04:11:49.293Z,928.11
2018-09-27T04:12:49.366Z,928.08
2018-09-27T04:13:49.361Z,928.07
2018-09-27T04:14:49.345Z,928.09
2018-09-27T04:15:49.374Z,928.09
2018-09-27T04:16:49.380Z,928.06
2018-09-27T04:17:49.629Z,928.04
2018-09-27T04:18:49.394Z,928.01
2018-09-27T04:19:49.416Z,927.97
2018-09-27T04:20:49.556Z,927.98
2018-09-27T04:21:49.625Z,927.93
2018-09-27T04:22:49.565Z,927.83
2018-09-27T04:23:49.618Z,927.82
2018-09-27T04:24:49.488Z,927.83
2018-09-27T04:25:49.633Z,927.86
2018-09-27T04:26:49.529Z,927.88
2018-09-27T04:27:49.741Z,927.92
2018-09-27T04:28:49.681Z,927.94
2018-09-27T04:29:49.671Z,927.99
2018-09-27T04:30:49.633Z,928.03
2018-09-27T04:31:49.610Z,928.09
2018-09-27T04:32:49.599Z,928.15
2018-09-27T04:33:49.791Z,928.13
2018-09-27T04:34:49.691Z,928.15
2018-09-27T04:35:49.663Z,928.18
2018-09-27T04:36:49.671Z,928.20
2018-09-27T04:37:49.691Z,928.19
2018-09-27T04:38:49.828Z,928.27
2018-09-27T04:39:49.984Z,928.34
2018-09-27T04:40:49.866Z,928.31
2018-09-27T04:41:49.742Z,928.34
2018-09-27T04:42:49.761Z,928.38
2018-09-27T04:43:49.905Z,928.38
2018-09-27T04:44:49.840Z,928.40
2018-09-27T04:45:49.855Z,928.39
2018-09-27T04:46:49.937Z,928.36
2018-09-27T04:47:49.842Z,928.33
2018-09-27T04:48:49.980Z,928.26
2018-09-27T04:49:50.194Z,928.25
2018-09-27T04:50:50.004Z,928.25
2018-09-27T04:51:50.085Z,928.19
2018-09-27T04:52:49.931Z,928.22
2018-09-27T04:53:50.053Z,928.11
2018-09-27T04:54:50.148Z,928.11
2018-09-27T04:55:50.080Z,928.12
2018-09-27T04:56:50.096Z,928.06
2018-09-27T04:57:49.993Z,928.09
2018-09-27T04:58:50.002Z,928.03
2018-09-27T04:59:50.385Z,927.98
2018-09-27T05:00:50.153Z,927.92
2018-09-27T05:01:50.087Z,927.87
2018-09-27T05:02:50.064Z,927.80
2018-09-27T05:03:50.132Z,927.74
2018-09-27T05:04:50.422Z,927.70
2018-09-27T05:05:50.113Z,927.71
2018-09-27T05:06:50.244Z,927.71
2018-09-27T05:07:50.149Z,927.71
2018-09-27T05:08:50.157Z,927.65
2018-09-27T05:09:50.371Z,927.61
2018-09-27T05:10:50.182Z,927.58
2018-09-27T05:11:50.209Z,927.57
2018-09-27T05:12:50.265Z,927.56
2018-09-27T05:13:50.239Z,927.52
2018-09-27T05:14:50.286Z,927.51
2018-09-27T05:15:50.289Z,927.46
2018-09-27T05:16:50.290Z,927.41
2018-09-27T05:17:50.498Z,927.37
2018-09-27T05:18:50.291Z,927.38
2018-09-27T05:19:50.317Z,927.36
2018-09-27T05:20:50.338Z,927.33
2018-09-27T05:21:50.472Z,927.28
2018-09-27T05:22:50.558Z,927.26
2018-09-27T05:23:50.376Z,927.22
2018-09-27T05:24:50.520Z,927.29
2018-09-27T05:25:50.530Z,927.33
2018-09-27T05:26:50.418Z,927.35
2018-09-27T05:27:50.692Z,927.38
2018-09-27T05:28:50.464Z,927.31
2018-09-27T05:29:50.470Z,927.32
2018-09-27T05:30:50.491Z,927.26
2018-09-27T05:31:50.500Z,927.21
2018-09-27T05:32:50.592Z,927.16
2018-09-27T05:33:50.525Z,927.17
2018-09-27T05:34:50.667Z,927.12
2018-09-27T05:35:50.569Z,927.15
2018-09-27T05:36:50.564Z,927.11
2018-09-27T05:37:50.908Z,927.13
2018-09-27T05:38:50.598Z,927.12
2018-09-27T05:39:50.742Z,927.16
2018-09-27T05:40:50.635Z,927.10
2018-09-27T05:41:50.770Z,927.12
2018-09-27T05:42:50.981Z,927.06
2018-09-27T05:43:50.680Z,927.00
2018-09-27T05:44:50.688Z,926.97
2018-09-27T05:45:50.696Z,926.93
2018-09-27T05:46:50.711Z,926.91
2018-09-27T05:47:50.782Z,926.89
2018-09-27T05:48:50.873Z,926.87
2018-09-27T05:49:50.820Z,926.85
2018-09-27T05:50:51.095Z,926.84
2018-09-27T05:51:50.786Z,926.81
2018-09-27T05:52:50.811Z,926.82
2018-09-27T05:53:50.833Z,926.79
2018-09-27T05:54:50.877Z,926.83
2018-09-27T05:55:51.098Z,926.80
2018-09-27T05:56:50.902Z,926.77
2018-09-27T05:57:50.879Z,926.73
2018-09-27T05:58:50.900Z,926.68
2018-09-27T05:59:51.038Z,926.68
2018-09-27T06:00:50.969Z,926.66
2018-09-27T06:01:50.991Z,926.66
2018-09-27T06:02:50.964Z,926.68
2018-09-27T06:03:51.091Z,926.68
2018-09-27T06:04:50.993Z,926.72
2018-09-27T06:05:51.072Z,926.70
2018-09-27T06:06:51.135Z,926.71
2018-09-27T06:07:51.034Z,926.70
2018-09-27T06:08:51.172Z,926.67
2018-09-27T06:09:51.058Z,926.68
2018-09-27T06:10:51.200Z,926.70
2018-09-27T06:11:51.083Z,926.65
2018-09-27T06:12:51.105Z,926.69
2018-09-27T06:13:51.188Z,926.65
2018-09-27T06:14:51.141Z,926.70
2018-09-27T06:15:51.151Z,926.70
2018-09-27T06:16:51.283Z,926.77
2018-09-27T06:17:51.414Z,926.77
2018-09-27T06:18:51.317Z,926.78
2018-09-27T06:19:51.277Z,926.78
2018-09-27T06:20:51.348Z,926.81
2018-09-27T06:21:51.358Z,926.81
2018-09-27T06:22:51.427Z,926.80
2018-09-27T06:23:51.267Z,926.78
2018-09-27T06:24:51.289Z,926.77
2018-09-27T06:25:51.458Z,926.72
2018-09-27T06:26:51.330Z,926.71
2018-09-27T06:27:51.322Z,926.70
2018-09-27T06:28:51.659Z,926.69
2018-09-27T06:29:51.359Z,926.70
2018-09-27T06:30:51.365Z,926.72
2018-09-27T06:31:51.389Z,926.73
2018-09-27T06:32:51.397Z,926.70
2018-09-27T06:33:51.617Z,926.67
2018-09-27T06:34:51.463Z,926.69
2018-09-27T06:35:51.479Z,926.71
2018-09-27T06:36:51.462Z,926.71
2018-09-27T06:37:51.464Z,926.73
2018-09-27T06:38:51.604Z,926.72
2018-09-27T06:39:51.492Z,926.74
2018-09-27T06:40:51.516Z,926.76
2018-09-27T06:41:51.651Z,926.74
2018-09-27T06:42:51.538Z,926.68
2018-09-27T06:43:51.877Z,926.69
2018-09-27T06:44:51.696Z,926.67
2018-09-27T06:45:51.711Z,926.67
2018-09-27T06:46:51.598Z,926.63
2018-09-27T06:47:51.625Z,926.61
2018-09-27T06:48:51.788Z,926.59
2018-09-27T06:49:51.649Z,926.58
2018-09-27T06:50:51.679Z,926.59
2018-09-27T06:51:51.798Z,926.57
2018-09-27T06:52:51.731Z,926.58
2018-09-27T06:53:51.903Z,926.61
2018-09-27T06:54:51.913Z,926.62
2018-09-27T06:55:51.950Z,926.63
2018-09-27T06:56:51.748Z,926.63
2018-09-27T06:57:51.775Z,926.57
2018-09-27T06:58:52.104Z,926.57
2018-09-27T06:59:51.793Z,926.58
2018-09-27T07:00:51.949Z,926.58
2018-09-27T07:01:51.942Z,926.64
2018-09-27T07:02:51.837Z,926.64
2018-09-27T07:03:52.024Z,926.65
2018-09-27T07:04:51.948Z,926.67
2018-09-27T07:05:51.887Z,926.69
2018-09-27T07:06:51.889Z,926.70
2018-09-27T07:07:51.903Z,926.76
2018-09-27T07:08:52.127Z,926.76
2018-09-27T07:09:52.054Z,926.75
2018-09-27T07:10:51.938Z,926.71
2018-09-27T07:11:52.035Z,926.67
2018-09-27T07:12:52.070Z,926.63
2018-09-27T07:13:52.036Z,926.61
2018-09-27T07:14:52.105Z,926.62
2018-09-27T07:15:52.149Z,926.64
2018-09-27T07:16:52.157Z,926.66
2018-09-27T07:17:52.044Z,926.66
2018-09-27T07:18:52.195Z,926.69
2018-09-27T07:19:52.129Z,926.69
2018-09-27T07:20:52.102Z,926.60
2018-09-27T07:21:52.116Z,926.67
2018-09-27T07:22:52.326Z,926.70
2018-09-27T07:23:52.144Z,926.66
2018-09-27T07:24:52.164Z,926.68
2018-09-27T07:25:52.204Z,926.62
2018-09-27T07:26:52.182Z,926.63
2018-09-27T07:27:52.390Z,926.61
2018-09-27T07:28:52.216Z,926.63
2018-09-27T07:29:52.226Z,926.64
2018-09-27T07:30:52.232Z,926.70
2018-09-27T07:31:52.258Z,926.71
2018-09-27T07:32:52.440Z,926.70
2018-09-27T07:33:52.286Z,926.72
2018-09-27T07:34:52.289Z,926.71
2018-09-27T07:35:52.634Z,926.74
2018-09-27T07:36:52.337Z,926.72
2018-09-27T07:37:52.340Z,926.73
2018-09-27T07:38:52.352Z,926.71
2018-09-27T07:39:52.495Z,926.72
2018-09-27T07:40:52.584Z,926.73
2018-09-27T07:41:52.521Z,926.76
2018-09-27T07:42:52.620Z,926.74
2018-09-27T07:43:52.427Z,926.77
2018-09-27T07:44:52.438Z,926.79
2018-09-27T07:45:52.546Z,926.77
2018-09-27T07:46:52.460Z,926.76
2018-09-27T07:47:52.613Z,926.70
2018-09-27T07:48:52.632Z,926.76
2018-09-27T07:49:52.523Z,926.71
2018-09-27T07:50:52.579Z,926.73
2018-09-27T07:51:52.540Z,926.73
2018-09-27T07:52:52.682Z,926.70
2018-09-27T07:53:52.697Z,926.70
2018-09-27T07:54:53.003Z,926.66
2018-09-27T07:55:52.727Z,926.65
2018-09-27T07:56:52.631Z,926.64
2018-09-27T07:57:52.754Z,926.63
2018-09-27T07:58:52.646Z,926.64
2018-09-27T07:59:52.857Z,926.61
2018-09-27T08:00:52.671Z,926.64
2018-09-27T08:01:52.694Z,926.66
2018-09-27T08:02:52.823Z,926.61
2018-09-27T08:03:52.845Z,926.66
2018-09-27T08:04:52.792Z,926.67
2018-09-27T08:05:52.751Z,926.67
2018-09-27T08:06:52.889Z,926.68
2018-09-27T08:07:52.790Z,926.72
2018-09-27T08:08:52.918Z,926.72
2018-09-27T08:09:53.031Z,926.71
2018-09-27T08:10:52.846Z,926.70
2018-09-27T08:11:52.965Z,926.71
2018-09-27T08:12:52.851Z,926.74
2018-09-27T08:13:52.996Z,926.76
2018-09-27T08:14:52.982Z,926.74
2018-09-27T08:15:52.904Z,926.77
2018-09-27T08:16:52.957Z,926.73
2018-09-27T08:17:53.050Z,926.74
2018-09-27T08:18:53.069Z,926.72
2018-09-27T08:19:53.161Z,926.70
2018-09-27T08:20:52.998Z,926.71
2018-09-27T08:21:53.030Z,926.67
2018-09-27T08:22:53.014Z,926.66
2018-09-27T08:23:53.176Z,926.68
2018-09-27T08:24:53.039Z,926.65
2018-09-27T08:25:53.092Z,926.68
2018-09-27T08:26:53.070Z,926.65
2018-09-27T08:27:53.083Z,926.64
2018-09-27T08:28:53.215Z,926.67
2018-09-27T08:29:53.233Z,926.68
2018-09-27T08:30:53.388Z,926.67
2018-09-27T08:31:53.260Z,926.73
2018-09-27T08:32:53.270Z,926.74
2018-09-27T08:33:53.292Z,926.73
2018-09-27T08:34:53.178Z,926.73
2018-09-27T08:35:53.182Z,926.76
2018-09-27T08:36:53.447Z,926.80
2018-09-27T08:37:53.349Z,926.83
2018-09-27T08:38:53.238Z,926.83
2018-09-27T08:39:53.257Z,926.94
2018-09-27T08:40:53.390Z,926.92
2018-09-27T08:41:53.341Z,926.94
2018-09-27T08:42:53.304Z,926.99
2018-09-27T08:43:53.440Z,927.01
2018-09-27T08:44:53.641Z,927.06
2018-09-27T08:45:53.395Z,927.10
2018-09-27T08:46:53.407Z,927.13
2018-09-27T08:47:53.373Z,927.14
2018-09-27T08:48:53.393Z,927.18
2018-09-27T08:49:53.411Z,927.21
2018-09-27T08:50:53.420Z,927.20
2018-09-27T08:51:53.659Z,927.23
2018-09-27T08:52:53.586Z,927.25
2018-09-27T08:53:53.469Z,927.27
2018-09-27T08:54:53.599Z,927.29
2018-09-27T08:55:53.546Z,927.30
2018-09-27T08:56:53.744Z,927.25
2018-09-27T08:57:53.519Z,927.23
2018-09-27T08:58:53.658Z,927.25
2018-09-27T08:59:53.555Z,927.23
2018-09-27T09:00:53.572Z,927.25
2018-09-27T09:01:53.903Z,927.28
2018-09-27T09:02:53.634Z,927.26
2018-09-27T09:03:53.638Z,927.28
2018-09-27T09:04:53.630Z,927.26
2018-09-27T09:05:53.636Z,927.25
2018-09-27T09:06:53.852Z,927.23
2018-09-27T09:07:53.788Z,927.22
2018-09-27T09:08:53.686Z,927.19
2018-09-27T09:09:53.704Z,927.22
2018-09-27T09:10:53.840Z,927.19
2018-09-27T09:11:53.904Z,927.18
2018-09-27T09:12:53.736Z,927.23
2018-09-27T09:13:53.763Z,927.23
2018-09-27T09:14:53.793Z,927.26
2018-09-27T09:15:53.909Z,927.27
2018-09-27T09:16:53.842Z,927.29
2018-09-27T09:17:53.817Z,927.27
2018-09-27T09:18:53.955Z,927.29
2018-09-27T09:19:53.973Z,927.35
2018-09-27T09:20:53.959Z,927.32
2018-09-27T09:21:53.884Z,927.35
2018-09-27T09:22:53.886Z,927.32
2018-09-27T09:23:53.936Z,927.26
2018-09-27T09:24:53.926Z,927.23
2018-09-27T09:25:54.270Z,927.21
2018-09-27T09:26:53.950Z,927.16
2018-09-27T09:27:54.094Z,927.12
2018-09-27T09:28:53.984Z,927.08
2018-09-27T09:29:54.178Z,927.11
2018-09-27T09:30:54.187Z,927.12
2018-09-27T09:31:54.036Z,927.15
2018-09-27T09:32:54.045Z,927.20
2018-09-27T09:33:54.056Z,927.19
2018-09-27T09:34:54.097Z,927.26
2018-09-27T09:35:54.311Z,927.29
2018-09-27T09:36:54.115Z,927.27
2018-09-27T09:37:54.126Z,927.26
2018-09-27T09:38:54.267Z,927.29
2018-09-27T09:39:54.284Z,927.21
2018-09-27T09:40:54.230Z,927.24
2018-09-27T09:41:54.197Z,927.24
2018-09-27T09:42:54.200Z,927.24
2018-09-27T09:43:54.220Z,927.27
2018-09-27T09:44:54.237Z,927.31
2018-09-27T09:45:54.429Z,927.30
2018-09-27T09:46:54.274Z,927.32
2018-09-27T09:47:54.275Z,927.38
2018-09-27T09:48:54.306Z,927.36
2018-09-27T09:49:54.321Z,927.40
2018-09-27T09:50:54.654Z,927.41
2018-09-27T09:51:54.469Z,927.37
2018-09-27T09:52:54.359Z,927.41
2018-09-27T09:53:54.503Z,927.39
2018-09-27T09:54:54.388Z,927.42
2018-09-27T09:55:54.503Z,927.47
2018-09-27T09:56:54.431Z,927.48
2018-09-27T09:57:54.452Z,927.53
2018-09-27T09:58:54.498Z,927.56
2018-09-27T09:59:54.480Z,927.58
2018-09-27T10:00:54.761Z,927.61
2018-09-27T10:01:54.513Z,927.61
2018-09-27T10:02:54.655Z,927.64
2018-09-27T10:03:54.561Z,927.63
2018-09-27T10:04:54.687Z,927.67
2018-09-27T10:05:54.677Z,927.73
2018-09-27T10:06:54.608Z,927.75
2018-09-27T10:07:54.617Z,927.76
2018-09-27T10:08:54.808Z,927.83
2018-09-27T10:09:54.689Z,927.77
2018-09-27T10:10:54.711Z,927.79
2018-09-27T10:11:54.667Z,927.75
2018-09-27T10:12:54.688Z,927.75
2018-09-27T10:13:54.840Z,927.79
2018-09-27T10:14:54.948Z,927.76
2018-09-27T10:15:54.751Z,927.76
2018-09-27T10:16:54.780Z,927.76
2018-09-27T10:17:54.901Z,927.78
2018-09-27T10:18:54.800Z,927.77
2018-09-27T10:19:55.150Z,927.78
2018-09-27T10:20:54.828Z,927.80
2018-09-27T10:21:54.860Z,927.79
2018-09-27T10:22:54.857Z,927.82
2018-09-27T10:23:54.870Z,927.81
2018-09-27T10:24:54.938Z,927.80
2018-09-27T10:25:54.913Z,927.86
2018-09-27T10:26:55.054Z,927.85
2018-09-27T10:27:54.950Z,927.90
2018-09-27T10:28:54.968Z,927.91
2018-09-27T10:29:55.215Z,927.91
2018-09-27T10:30:55.123Z,927.90
2018-09-27T10:31:55.016Z,927.90
2018-09-27T10:32:55.157Z,927.93
2018-09-27T10:33:55.070Z,927.91
2018-09-27T10:34:55.174Z,927.97
2018-09-27T10:35:55.212Z,927.96
2018-09-27T10:36:55.113Z,928.02
2018-09-27T10:37:55.247Z,928.03
2018-09-27T10:38:55.148Z,928.06
2018-09-27T10:39:55.385Z,928.07
2018-09-27T10:40:55.307Z,928.08
2018-09-27T10:41:55.321Z,928.10
2018-09-27T10:42:55.215Z,928.11
2018-09-27T10:43:55.232Z,928.12
2018-09-27T10:44:55.324Z,928.10
2018-09-27T10:45:55.493Z,928.16
2018-09-27T10:46:55.294Z,928.14
2018-09-27T10:47:55.313Z,928.16
2018-09-27T10:48:55.445Z,928.18
2018-09-27T10:49:55.364Z,928.20
2018-09-27T10:50:55.469Z,928.24
2018-09-27T10:51:55.499Z,928.23
2018-09-27T10:52:55.517Z,928.25
2018-09-27T10:53:55.535Z,928.25
2018-09-27T10:54:55.552Z,928.27
2018-09-27T10:55:55.643Z,928.29
2018-09-27T10:56:55.481Z,928.26
2018-09-27T10:57:55.608Z,928.28
2018-09-27T10:58:55.625Z,928.28
2018-09-27T10:59:55.535Z,928.32
2018-09-27T11:00:55.578Z,928.30
2018-09-27T11:01:55.561Z,928.35
2018-09-27T11:02:55.579Z,928.31
2018-09-27T11:03:55.639Z,928.34
2018-09-27T11:04:55.627Z,928.33
2018-09-27T11:05:55.845Z,928.33
2018-09-27T11:06:55.646Z,928.33
2018-09-27T11:07:55.659Z,928.35
2018-09-27T11:08:55.688Z,928.34
2018-09-27T11:09:55.713Z,928.32
2018-09-27T11:10:56.112Z,928.40
2018-09-27T11:11:55.744Z,928.37
2018-09-27T11:12:55.762Z,928.40
2018-09-27T11:13:55.783Z,928.40
2018-09-27T11:14:55.917Z,928.45
2018-09-27T11:15:55.868Z,928.48
2018-09-27T11:16:55.837Z,928.58
2018-09-27T11:17:55.855Z,928.61
2018-09-27T11:18:55.873Z,928.65
2018-09-27T11:19:55.897Z,928.63
2018-09-27T11:20:56.230Z,928.59
2018-09-27T11:21:55.960Z,928.60
2018-09-27T11:22:55.952Z,928.61
2018-09-27T11:23:56.097Z,928.59
2018-09-27T11:24:55.994Z,928.65
2018-09-27T11:25:56.110Z,928.65
2018-09-27T11:26:56.025Z,928.66
2018-09-27T11:27:56.049Z,928.68
2018-09-27T11:28:56.088Z,928.72
2018-09-27T11:29:56.085Z,928.77
2018-09-27T11:30:56.118Z,928.80
2018-09-27T11:31:56.187Z,928.86
2018-09-27T11:32:56.194Z,928.88
2018-09-27T11:33:56.185Z,928.92
2018-09-27T11:34:56.311Z,928.91
2018-09-27T11:35:56.198Z,928.93
2018-09-27T11:36:56.281Z,928.94
2018-09-27T11:37:56.372Z,928.94
2018-09-27T11:38:56.288Z,928.99
2018-09-27T11:39:56.296Z,928.96
2018-09-27T11:40:56.312Z,929.00
2018-09-27T11:41:56.372Z,929.01
2018-09-27T11:42:56.594Z,929.04
2018-09-27T11:43:56.495Z,929.04
2018-09-27T11:44:56.516Z,929.05
2018-09-27T11:45:56.411Z,929.06
2018-09-27T11:46:56.475Z,929.14
2018-09-27T11:47:56.573Z,929.15
2018-09-27T11:48:56.488Z,929.13
2018-09-27T11:49:56.644Z,929.16
2018-09-27T11:50:56.627Z,929.13
2018-09-27T11:51:56.591Z,929.14
2018-09-27T11:52:56.659Z,929.09
2018-09-27T11:53:56.561Z,929.08
2018-09-27T11:54:56.627Z,929.05
2018-09-27T11:55:56.776Z,929.03
2018-09-27T11:56:56.788Z,929.01
2018-09-27T11:57:56.625Z,929.05
2018-09-27T11:58:56.838Z,929.00
2018-09-27T11:59:56.795Z,928.98
2018-09-27T12:00:56.696Z,928.95
2018-09-27T12:01:56.762Z,928.96
2018-09-27T12:02:56.715Z,928.95
2018-09-27T12:03:56.864Z,928.96
2018-09-27T12:04:56.884Z,928.95
2018-09-27T12:05:56.918Z,928.98
2018-09-27T12:06:56.854Z,929.02
2018-09-27T12:07:56.813Z,929.01
2018-09-27T12:08:56.845Z,929.05
2018-09-27T12:09:56.978Z,929.07
2018-09-27T12:10:56.989Z,929.11
2018-09-27T12:11:56.964Z,929.11
2018-09-27T12:12:56.917Z,929.12
2018-09-27T12:13:57.052Z,929.14
2018-09-27T12:14:57.066Z,929.13
2018-09-27T12:15:57.086Z,929.17
2018-09-27T12:16:57.118Z,929.19
2018-09-27T12:17:56.991Z,929.19
2018-09-27T12:18:57.137Z,929.21
2018-09-27T12:19:57.109Z,929.21
2018-09-27T12:20:57.174Z,929.25
2018-09-27T12:21:57.165Z,929.32
2018-09-27T12:22:57.136Z,929.29
2018-09-27T12:23:57.116Z,929.25
2018-09-27T12:24:57.129Z,929.28
2018-09-27T12:25:57.268Z,929.44
2018-09-27T12:26:57.205Z,929.40
2018-09-27T12:27:57.173Z,929.25
2018-09-27T12:28:57.324Z,929.22
2018-09-27T12:29:57.344Z,929.23